Time;durP1;ratioP1;P1;durP2;ratioP2;P2;SDS_P1;SDS_P2;PMS_P1;PMS_P2;Temp;Humidity;BMP_temperature;BMP_pressure;BME280_temperature;BME280_humidity;BME280_pressure;Samples;Min_cycle;Max_cycle;Signal;HPM_P1;HPM_P2
2023/10/08 00:00:49;;;;;;;1.60;1.60;;;20.40;78.30;;;;;;5132766;27;44186;-72
2023/10/08 00:03:18;;;;;;;1.77;1.77;;;20.50;78.00;;;;;;5122851;27;45798;-71
2023/10/08 00:05:49;;;;;;;1.67;1.67;;;20.60;77.40;;;;;;5132262;27;43421;-72
2023/10/08 00:08:18;;;;;;;1.60;1.60;;;20.70;76.90;;;;;;5131043;27;43370;-72
2023/10/08 00:10:46;;;;;;;1.67;1.67;;;20.80;76.80;;;;;;5128677;27;43387;-72
2023/10/08 00:13:15;;;;;;;1.60;1.60;;;20.70;76.70;;;;;;5115216;27;45937;-72
2023/10/08 00:15:52;;;;;;;1.90;1.80;;;20.70;77.00;;;;;;5130670;27;43432;-72
2023/10/08 00:18:22;;;;;;;1.70;1.70;;;20.60;77.20;;;;;;5125531;27;43634;-72
2023/10/08 00:20:58;;;;;;;1.60;1.60;;;20.50;77.70;;;;;;5131386;27;43947;-72
2023/10/08 00:23:26;;;;;;;1.63;1.63;;;20.50;77.70;;;;;;5127591;27;43852;-72
2023/10/08 00:25:55;;;;;;;1.80;1.80;;;20.40;77.70;;;;;;5125134;27;43435;-71
2023/10/08 00:28:24;;;;;;;1.40;1.40;;;20.40;77.80;;;;;;5117309;27;43469;-72
2023/10/08 00:30:54;;;;;;;1.80;1.80;;;20.40;77.90;;;;;;5111874;27;43486;-71
2023/10/08 00:33:22;;;;;;;1.70;1.70;;;20.40;78.40;;;;;;5123385;27;45655;-72
2023/10/08 00:35:52;;;;;;;1.50;1.50;;;20.40;78.10;;;;;;5126672;27;44269;-72
2023/10/08 00:38:21;;;;;;;1.70;1.70;;;20.50;77.80;;;;;;5129434;27;43451;-72
2023/10/08 00:40:49;;;;;;;1.70;1.70;;;20.60;77.60;;;;;;5122914;27;43482;-72
2023/10/08 00:43:33;;;;;;;1.60;1.60;;;20.60;77.40;;;;;;5127986;27;45650;-66
2023/10/08 00:46:01;;;;;;;1.63;1.63;;;20.50;77.60;;;;;;5135619;27;43410;-66
2023/10/08 00:48:35;;;;;;;1.60;1.60;;;20.50;77.60;;;;;;5123810;27;43553;-66
2023/10/08 00:51:16;;;;;;;1.50;1.50;;;20.50;77.60;;;;;;5126522;27;43533;-67
2023/10/08 00:53:46;;;;;;;1.80;1.80;;;20.50;77.70;;;;;;5135395;27;43952;-66
2023/10/08 00:56:18;;;;;;;1.57;1.57;;;20.40;77.70;;;;;;5127458;27;44819;-66
2023/10/08 00:58:49;;;;;;;1.70;1.70;;;20.40;78.00;;;;;;5136653;27;43400;-66
2023/10/08 01:01:20;;;;;;;1.50;1.50;;;20.40;78.10;;;;;;5136685;27;43536;-67
2023/10/08 01:03:49;;;;;;;1.57;1.57;;;20.40;78.00;;;;;;5135847;27;43911;-66
2023/10/08 01:06:20;;;;;;;1.40;1.40;;;20.40;78.00;;;;;;5124852;27;43918;-66
2023/10/08 01:08:52;;;;;;;1.80;1.80;;;20.30;78.80;;;;;;5128133;27;43372;-66
2023/10/08 01:11:27;;;;;;;1.60;1.60;;;20.30;78.40;;;;;;5128734;27;43435;-67
2023/10/08 01:14:00;;;;;;;1.53;1.53;;;20.30;78.40;;;;;;5121393;27;45725;-66
2023/10/08 01:16:32;;;;;;;1.63;1.63;;;20.40;78.10;;;;;;5133638;27;43413;-66
2023/10/08 01:19:02;;;;;;;1.67;1.67;;;20.50;77.60;;;;;;5130929;27;43377;-66
2023/10/08 01:21:34;;;;;;;1.70;1.70;;;20.60;77.10;;;;;;5114410;27;43547;-67
2023/10/08 01:24:06;;;;;;;1.53;1.53;;;20.70;76.90;;;;;;5129285;27;45752;-66
2023/10/08 01:26:38;;;;;;;1.70;1.70;;;20.70;76.90;;;;;;5128917;27;44734;-66
2023/10/08 01:29:11;;;;;;;1.60;1.60;;;20.60;77.00;;;;;;5128733;27;43981;-67
2023/10/08 01:31:40;;;;;;;1.60;1.60;;;20.60;77.30;;;;;;5122415;27;43490;-69
2023/10/08 01:34:08;;;;;;;1.70;1.70;;;20.50;77.60;;;;;;5117054;27;45692;-66
2023/10/08 01:36:42;;;;;;;1.73;1.73;;;20.50;77.60;;;;;;5134149;27;43468;-67
2023/10/08 01:39:15;;;;;;;1.67;1.67;;;20.50;77.70;;;;;;5127684;27;43357;-66
2023/10/08 01:41:44;;;;;;;1.50;1.50;;;20.40;77.70;;;;;;5129769;27;43549;-67
2023/10/08 01:44:13;;;;;;;1.60;1.60;;;20.40;77.90;;;;;;5130178;27;45355;-66
2023/10/08 01:46:41;;;;;;;1.73;1.73;;;20.40;78.20;;;;;;5128693;27;44639;-67
2023/10/08 01:49:14;;;;;;;1.60;1.60;;;20.40;77.90;;;;;;5126920;27;43418;-66
2023/10/08 01:51:46;;;;;;;1.40;1.40;;;20.50;77.60;;;;;;5117597;27;43581;-66
2023/10/08 01:54:17;;;;;;;1.50;1.50;;;20.50;77.50;;;;;;5131562;27;45657;-66
2023/10/08 01:56:46;;;;;;;1.40;1.40;;;20.50;77.60;;;;;;5129147;27;44609;-66
2023/10/08 01:59:15;;;;;;;1.60;1.60;;;20.50;77.70;;;;;;5125710;27;43443;-67
2023/10/08 02:01:45;;;;;;;1.60;1.60;;;20.50;77.70;;;;;;5130851;27;43436;-66
2023/10/08 02:04:16;;;;;;;1.80;1.80;;;20.40;77.50;;;;;;5137084;27;44957;-70
2023/10/08 02:06:46;;;;;;;1.60;1.60;;;20.40;77.60;;;;;;5136110;27;44680;-70
2023/10/08 02:09:16;;;;;;;1.60;1.60;;;20.40;77.90;;;;;;5144831;27;43390;-70
2023/10/08 02:11:45;;;;;;;1.63;1.40;;;20.40;78.10;;;;;;5143115;27;43546;-70
2023/10/08 02:14:15;;;;;;;1.77;1.77;;;20.40;78.00;;;;;;5142085;27;45953;-70
2023/10/08 02:16:43;;;;;;;1.60;1.60;;;20.40;78.00;;;;;;5139965;27;45165;-70
2023/10/08 02:19:11;;;;;;;1.43;1.43;;;20.40;78.10;;;;;;5150670;27;43380;-70
2023/10/08 02:21:46;;;;;;;1.40;1.40;;;20.30;78.20;;;;;;5141904;27;43558;-70
2023/10/08 02:24:15;;;;;;;1.60;1.60;;;20.30;78.50;;;;;;5139553;27;45788;-70
2023/10/08 02:26:44;;;;;;;1.53;1.53;;;20.40;78.20;;;;;;5150554;27;43445;-70
2023/10/08 02:29:12;;;;;;;1.60;1.60;;;20.50;77.70;;;;;;5150578;27;43449;-70
2023/10/08 02:31:40;;;;;;;1.80;1.80;;;20.60;77.20;;;;;;5140838;27;43597;-70
2023/10/08 02:34:09;;;;;;;1.60;1.60;;;20.80;76.80;;;;;;5143800;27;45987;-70
2023/10/08 02:36:37;;;;;;;1.47;1.47;;;20.80;76.50;;;;;;5150229;27;43492;-70
2023/10/08 02:39:13;;;;;;;1.57;1.57;;;20.70;76.50;;;;;;5143581;27;43402;-70
2023/10/08 02:41:45;;;;;;;1.43;1.43;;;20.70;76.80;;;;;;5133608;27;43447;-69
2023/10/08 02:44:14;;;;;;;1.67;1.67;;;20.60;77.90;;;;;;5132925;27;45708;-70
2023/10/08 02:46:42;;;;;;;1.70;1.70;;;20.60;77.40;;;;;;5143694;27;44779;-70
2023/10/08 02:49:11;;;;;;;1.40;1.40;;;20.50;77.40;;;;;;5146968;27;43421;-70
2023/10/08 02:51:41;;;;;;;1.57;1.57;;;20.50;77.50;;;;;;5144998;27;43381;-71
2023/10/08 02:54:16;;;;;;;1.70;1.70;;;20.40;77.50;;;;;;5144684;27;45896;-70
2023/10/08 02:56:47;;;;;;;1.50;1.50;;;20.40;77.80;;;;;;5139225;27;44717;-70
2023/10/08 02:59:15;;;;;;;1.43;1.43;;;20.40;78.10;;;;;;5142846;27;43393;-70
2023/10/08 03:01:43;;;;;;;1.40;1.40;;;20.40;78.20;;;;;;5135728;27;43432;-70
2023/10/08 03:04:18;;;;;;;1.40;1.40;;;20.30;78.00;;;;;;5127136;27;45662;-66
2023/10/08 03:06:50;;;;;;;1.80;1.70;;;20.30;78.10;;;;;;5117984;27;45011;-66
2023/10/08 03:09:22;;;;;;;1.50;1.50;;;20.30;78.30;;;;;;5130085;27;43437;-67
2023/10/08 03:11:52;;;;;;;1.40;1.40;;;20.30;78.40;;;;;;5128160;27;43420;-66
2023/10/08 03:14:22;;;;;;;1.43;1.43;;;20.40;78.20;;;;;;5129226;27;43827;-72
2023/10/08 03:16:51;;;;;;;1.57;1.57;;;20.50;77.70;;;;;;5117412;27;44807;-72
2023/10/08 03:19:22;;;;;;;1.40;1.40;;;20.70;77.10;;;;;;5113318;27;43428;-71
2023/10/08 03:21:56;;;;;;;2.60;1.40;;;20.80;76.80;;;;;;5121526;27;43517;-72
2023/10/08 03:24:36;;;;;;;1.50;1.50;;;20.70;76.60;;;;;;5114819;27;46086;-72
2023/10/08 03:27:15;;;;;;;1.40;1.40;;;20.70;76.80;;;;;;5121082;27;45015;-72
2023/10/08 03:29:43;;;;;;;1.53;1.53;;;20.60;77.00;;;;;;5132499;27;43410;-72
2023/10/08 03:32:15;;;;;;;1.50;1.50;;;20.50;77.50;;;;;;5126377;27;43928;-72
2023/10/08 03:34:47;;;;;;;1.40;1.40;;;20.50;77.60;;;;;;5128030;27;46016;-72
2023/10/08 03:37:20;;;;;;;1.60;1.60;;;20.50;77.60;;;;;;5128493;27;43917;-72
2023/10/08 03:40:07;;;;;;;1.53;1.53;;;20.50;77.70;;;;;;5124384;27;43465;-72
2023/10/08 03:42:40;;;;;;;1.50;1.50;;;20.40;77.70;;;;;;5131571;27;43996;-71
2023/10/08 03:45:12;;;;;;;1.40;1.40;;;20.40;78.20;;;;;;5132534;27;43551;-71
2023/10/08 03:47:46;;;;;;;1.60;1.60;;;20.40;78.10;;;;;;5131923;27;44059;-70
2023/10/08 03:50:17;;;;;;;1.50;1.50;;;20.40;77.90;;;;;;5132571;27;43417;-71
2023/10/08 03:52:47;;;;;;;1.40;1.40;;;20.40;77.90;;;;;;5126524;27;43367;-70
2023/10/08 03:55:21;;;;;;;1.40;1.40;;;20.30;77.90;;;;;;5125721;27;43924;-71
2023/10/08 03:57:56;;;;;;;1.50;1.50;;;20.30;78.30;;;;;;5127485;27;43359;-70
2023/10/08 04:00:31;;;;;;;1.47;1.47;;;20.40;78.20;;;;;;5132102;27;43377;-71
2023/10/08 04:03:07;;;;;;;1.50;1.50;;;20.50;77.90;;;;;;5125983;27;43398;-71
2023/10/08 04:05:44;;;;;;;1.50;1.50;;;20.60;77.30;;;;;;5131936;27;43595;-73
2023/10/08 04:08:24;;;;;;;1.40;1.40;;;20.80;76.80;;;;;;5131870;27;43424;-72
2023/10/08 04:11:28;;;;;;;1.33;1.33;;;20.80;76.40;;;;;;5130033;27;43390;-73
2023/10/08 04:14:00;;;;;;;1.60;1.60;;;20.80;76.40;;;;;;5128358;27;43399;-71
2023/10/08 04:16:28;;;;;;;1.30;1.30;;;20.70;76.60;;;;;;5122944;27;45378;-71
2023/10/08 04:18:56;;;;;;;1.60;1.60;;;20.60;76.90;;;;;;5131430;27;43975;-71
2023/10/08 04:21:27;;;;;;;1.50;1.50;;;20.60;77.30;;;;;;5129538;27;43486;-71
2023/10/08 04:23:57;;;;;;;1.50;1.50;;;20.60;77.30;;;;;;5128027;27;43408;-71
2023/10/08 04:26:25;;;;;;;1.57;1.57;;;20.50;77.30;;;;;;5131233;27;43615;-69
2023/10/08 04:28:57;;;;;;;1.47;1.47;;;20.50;77.40;;;;;;5131472;27;43445;-69
2023/10/08 04:31:36;;;;;;;1.70;1.70;;;20.40;77.60;;;;;;5131705;27;43411;-69
2023/10/08 04:34:09;;;;;;;1.60;1.60;;;20.40;77.90;;;;;;5130949;27;43457;-71
2023/10/08 04:36:39;;;;;;;1.50;1.50;;;20.40;77.90;;;;;;5128012;27;43625;-71
2023/10/08 04:39:13;;;;;;;1.40;1.40;;;20.40;77.80;;;;;;5124675;27;43275;-74
2023/10/08 04:41:42;;;;;;;1.40;1.40;;;20.40;77.90;;;;;;5125560;27;43326;-74
2023/10/08 04:44:15;;;;;;;1.60;1.60;;;20.30;78.20;;;;;;5130980;27;43469;-70
2023/10/08 04:46:51;;;;;;;1.37;1.37;;;20.40;78.20;;;;;;5116424;27;45718;-70
2023/10/08 04:49:27;;;;;;;1.50;1.50;;;20.50;77.70;;;;;;5126733;27;44521;-70
2023/10/08 04:51:58;;;;;;;1.47;1.47;;;20.60;77.30;;;;;;5124603;27;43394;-70
2023/10/08 04:54:29;;;;;;;1.77;1.77;;;20.70;76.70;;;;;;5125988;27;43494;-70
2023/10/08 04:56:59;;;;;;;1.60;1.60;;;20.80;76.50;;;;;;5130520;27;43907;-70
2023/10/08 04:59:33;;;;;;;1.40;1.40;;;20.80;76.60;;;;;;5124943;27;43441;-70
2023/10/08 05:02:34;;;;;;;1.60;1.60;;;20.70;76.70;;;;;;5130926;27;43563;-70
2023/10/08 05:08:17;;;;;;;1.50;1.50;;;20.50;77.40;;;;;;5130048;27;43655;-70
2023/10/08 05:11:00;;;;;;;1.47;1.47;;;20.50;77.50;;;;;;5125754;27;43559;-70
2023/10/08 05:13:33;;;;;;;1.77;1.77;;;20.50;77.60;;;;;;5124630;27;43433;-70
2023/10/08 05:16:12;;;;;;;1.40;1.40;;;20.50;77.70;;;;;;5126186;27;43337;-70
2023/10/08 05:21:50;;;;;;;1.63;1.63;;;20.40;78.00;;;;;;5102618;27;43477;-70
2023/10/08 05:24:27;;;;;;;1.60;1.60;;;20.40;77.90;;;;;;5110451;27;43562;-65
2023/10/08 05:27:26;;;;;;;1.50;1.50;;;20.40;77.90;;;;;;5105233;27;43476;-65
2023/10/08 05:32:51;;;;;;;1.40;1.40;;;20.30;78.20;;;;;;5106669;27;43927;-66
2023/10/08 05:35:38;;;;;;;1.70;1.70;;;20.40;78.30;;;;;;5110422;27;43555;-65
2023/10/08 05:38:16;;;;;;;1.60;1.60;;;20.50;77.80;;;;;;5108825;27;43447;-66
2023/10/08 05:43:48;;;;;;;1.57;1.57;;;20.80;76.70;;;;;;5099635;27;43896;-66
2023/10/08 05:46:39;;;;;;;1.50;1.50;;;20.80;76.40;;;;;;5109828;27;43531;-66
2023/10/08 05:55:13;;;;;;;1.50;1.50;;;20.60;77.10;;;;;;5106429;27;43667;-66
2023/10/08 05:57:38;;;;;;;1.43;1.43;;;20.50;77.30;;;;;;5106025;27;43508;-65
2023/10/08 06:03:09;;;;;;;1.47;1.47;;;20.50;77.40;;;;;;5099021;27;43482;-67
2023/10/08 06:05:46;;;;;;;1.60;1.60;;;20.40;77.50;;;;;;5084258;28;43692;-67
2023/10/08 06:08:15;;;;;;;1.50;1.50;;;20.40;78.00;;;;;;5089010;27;43437;-66
2023/10/08 06:10:46;;;;;;;1.40;1.40;;;20.40;77.90;;;;;;5083474;28;43447;-66
2023/10/08 06:13:19;;;;;;;1.50;1.50;;;20.40;77.80;;;;;;5089147;28;43331;-66
2023/10/08 06:15:48;;;;;;;1.50;1.50;;;20.40;77.90;;;;;;5086730;27;45665;-66
2023/10/08 06:18:18;;;;;;;1.57;1.57;;;20.40;77.90;;;;;;5086336;28;43518;-66
2023/10/08 06:20:46;;;;;;;1.57;1.57;;;20.30;78.20;;;;;;5088758;28;43802;-67
2023/10/08 06:23:18;;;;;;;1.63;1.63;;;20.30;78.20;;;;;;5087142;28;43418;-66
2023/10/08 06:25:54;;;;;;;1.57;1.57;;;20.40;77.80;;;;;;5087113;28;45958;-65
2023/10/08 06:28:25;;;;;;;1.60;1.60;;;20.60;77.40;;;;;;5087228;28;44982;-66
2023/10/08 06:30:57;;;;;;;1.37;1.37;;;20.70;76.80;;;;;;5085211;28;43612;-66
2023/10/08 06:33:30;;;;;;;1.40;1.40;;;20.80;76.50;;;;;;5066925;28;43313;-71
2023/10/08 06:36:02;;;;;;;1.43;1.43;;;20.70;76.50;;;;;;5070216;28;43856;-72
2023/10/08 06:38:33;;;;;;;1.50;1.50;;;20.70;76.80;;;;;;5070418;28;43553;-73
2023/10/08 06:41:08;;;;;;;1.70;1.70;;;20.60;77.00;;;;;;5068971;28;43404;-73
2023/10/08 06:43:37;;;;;;;1.70;1.70;;;20.60;77.50;;;;;;5067889;28;43372;-70
2023/10/08 06:46:07;;;;;;;1.47;1.47;;;20.50;77.40;;;;;;5068121;28;44066;-70
2023/10/08 06:48:35;;;;;;;1.87;1.87;;;20.50;77.40;;;;;;5066969;28;43355;-70
2023/10/08 06:51:08;;;;;;;1.90;1.90;;;20.50;77.50;;;;;;5069927;28;43372;-70
2023/10/08 06:53:38;;;;;;;1.70;1.70;;;20.40;77.60;;;;;;5070335;28;43337;-70
2023/10/08 06:56:09;;;;;;;1.80;1.80;;;20.40;78.00;;;;;;5069758;28;43969;-70
2023/10/08 06:58:38;;;;;;;2.30;2.17;;;20.40;77.90;;;;;;5069779;28;44354;-70
2023/10/08 07:01:08;;;;;;;2.90;2.80;;;20.40;77.80;;;;;;5069900;28;43423;-70
2023/10/08 07:03:37;;;;;;;2.60;2.57;;;20.40;77.80;;;;;;5069898;28;43830;-71
2023/10/08 07:06:16;;;;;;;5.30;5.10;;;20.30;77.80;;;;;;5068391;28;43844;-74
2023/10/08 07:08:54;;;;;;;5.90;5.50;;;20.30;78.20;;;;;;5065748;28;43431;-70
2023/10/08 07:11:26;;;;;;;6.67;6.27;;;20.40;78.20;;;;;;5064806;28;43354;-70
2023/10/08 07:13:54;;;;;;;8.00;7.50;;;20.50;77.70;;;;;;5070069;28;43380;-70
2023/10/08 07:16:23;;;;;;;9.00;8.40;;;20.60;77.20;;;;;;5068966;28;44093;-70
2023/10/08 07:18:51;;;;;;;10.27;9.43;;;20.80;76.60;;;;;;5069146;28;43887;-70
2023/10/08 07:21:28;;;;;;;12.47;11.47;;;20.80;76.20;;;;;;5069277;28;43439;-70
2023/10/08 07:23:57;;;;;;;13.90;12.60;;;20.80;76.10;;;;;;5067113;28;43429;-70
2023/10/08 07:26:35;;;;;;;14.97;13.67;;;20.80;76.30;;;;;;5069307;28;43838;-70
2023/10/08 07:29:08;;;;;;;14.17;12.93;;;20.70;76.50;;;;;;5069385;28;43348;-70
2023/10/08 07:31:36;;;;;;;14.23;13.03;;;20.60;77.00;;;;;;5068809;28;43899;-70
2023/10/08 07:34:17;;;;;;;14.80;13.50;;;20.60;77.10;;;;;;5069886;28;44348;-70
2023/10/08 07:36:47;;;;;;;12.87;11.87;;;20.50;77.00;;;;;;5063665;28;43658;-70
2023/10/08 07:39:25;;;;;;;12.67;11.70;;;20.50;77.10;;;;;;5063769;28;43370;-70
2023/10/08 07:41:55;;;;;;;14.90;13.67;;;20.50;77.40;;;;;;5069014;28;43998;-70
2023/10/08 07:44:23;;;;;;;15.47;14.07;;;20.40;78.50;;;;;;5066639;28;43666;-72
2023/10/08 07:46:55;;;;;;;15.30;14.00;;;20.40;77.70;;;;;;5066960;28;45646;-72
2023/10/08 07:49:25;;;;;;;14.77;13.57;;;20.40;77.50;;;;;;5067516;28;44495;-72
2023/10/08 07:51:53;;;;;;;14.13;12.83;;;20.40;77.60;;;;;;5069340;28;43810;-72
2023/10/08 07:54:22;;;;;;;15.67;14.30;;;20.40;77.80;;;;;;5069631;28;43425;-72
2023/10/08 07:56:51;;;;;;;16.80;15.23;;;20.40;78.20;;;;;;5067614;28;45408;-72
2023/10/08 07:59:22;;;;;;;16.70;15.27;;;20.40;78.00;;;;;;5068598;28;43418;-72
2023/10/08 08:01:52;;;;;;;16.53;15.13;;;20.50;77.60;;;;;;5068905;28;43431;-72
2023/10/08 08:04:22;;;;;;;15.47;14.27;;;20.60;77.00;;;;;;5067970;28;43629;-72
2023/10/08 08:06:51;;;;;;;17.47;15.97;;;20.70;76.60;;;;;;5068686;28;43793;-72
2023/10/08 08:09:19;;;;;;;16.13;14.73;;;20.80;76.50;;;;;;5067266;28;44676;-72
2023/10/08 08:11:48;;;;;;;13.97;12.77;;;20.70;76.50;;;;;;5069228;28;43971;-72
2023/10/08 08:14:17;;;;;;;15.30;13.97;;;20.60;76.70;;;;;;5069198;28;43417;-72
2023/10/08 08:16:48;;;;;;;15.07;13.77;;;20.60;77.00;;;;;;5068800;28;43856;-72
2023/10/08 08:19:16;;;;;;;15.70;14.40;;;20.50;77.30;;;;;;5068778;28;43421;-72
2023/10/08 08:21:46;;;;;;;15.10;13.77;;;20.50;78.10;;;;;;5068645;28;44034;-72
2023/10/08 08:24:28;;;;;;;13.73;12.60;;;20.50;77.50;;;;;;5069055;28;43525;-72
2023/10/08 08:27:08;;;;;;;14.13;12.83;;;20.40;77.50;;;;;;5063533;28;43851;-72
2023/10/08 08:29:44;;;;;;;13.30;12.07;;;20.40;77.70;;;;;;5068691;28;43928;-72
2023/10/08 08:32:15;;;;;;;14.00;12.80;;;20.40;78.00;;;;;;5068517;28;43478;-72
2023/10/08 08:34:43;;;;;;;12.90;11.80;;;20.40;78.00;;;;;;5066871;28;43455;-72
2023/10/08 08:37:14;;;;;;;11.60;10.70;;;20.40;77.90;;;;;;5062683;28;43712;-72
2023/10/08 08:39:42;;;;;;;12.10;11.20;;;20.30;77.90;;;;;;5066544;28;43503;-72
2023/10/08 08:42:10;;;;;;;11.90;10.90;;;20.30;78.10;;;;;;5065684;28;43897;-72
2023/10/08 08:44:45;;;;;;;14.40;13.10;;;20.30;78.40;;;;;;5067084;28;43396;-72
2023/10/08 08:47:17;;;;;;;13.97;12.87;;;20.40;77.30;;;;;;5067963;28;43790;-72
2023/10/08 08:49:46;;;;;;;13.37;12.10;;;20.50;75.60;;;;;;5068398;28;43412;-72
2023/10/08 08:52:14;;;;;;;12.07;10.87;;;20.60;76.20;;;;;;5066719;28;43859;-66
2023/10/08 08:54:42;;;;;;;11.77;10.70;;;20.70;76.20;;;;;;5068309;28;43462;-70
2023/10/08 08:57:13;;;;;;;11.07;10.07;;;20.70;76.10;;;;;;5067712;28;43616;-70
2023/10/08 08:59:43;;;;;;;10.80;9.70;;;20.70;76.20;;;;;;5061442;28;43431;-70
2023/10/08 09:02:14;;;;;;;11.10;10.20;;;20.60;76.40;;;;;;5067169;28;43423;-71
2023/10/08 09:04:45;;;;;;;10.30;9.57;;;20.60;77.00;;;;;;5063966;28;43434;-72
2023/10/08 09:07:13;;;;;;;10.47;9.43;;;20.50;77.10;;;;;;5063250;28;45638;-72
2023/10/08 09:09:41;;;;;;;9.97;9.00;;;20.50;77.10;;;;;;5067890;28;43475;-72
2023/10/08 09:12:10;;;;;;;8.83;8.13;;;20.50;77.20;;;;;;5072896;28;43399;-71
2023/10/08 09:14:39;;;;;;;9.83;8.83;;;20.40;77.30;;;;;;5068249;28;43390;-72
2023/10/08 09:17:07;;;;;;;9.03;8.40;;;20.40;77.80;;;;;;5067953;28;43926;-72
2023/10/08 09:19:37;;;;;;;8.57;7.87;;;20.40;77.90;;;;;;5067729;28;43456;-72
2023/10/08 09:22:08;;;;;;;8.83;8.23;;;20.50;77.70;;;;;;5067926;28;43471;-72
2023/10/08 09:24:37;;;;;;;8.57;7.83;;;20.60;77.30;;;;;;5067942;28;43407;-72
2023/10/08 09:27:05;;;;;;;8.53;7.87;;;20.60;77.20;;;;;;5066840;28;43938;-72
2023/10/08 09:29:39;;;;;;;8.33;7.57;;;20.60;77.20;;;;;;5065972;28;44465;-72
2023/10/08 09:32:10;;;;;;;7.37;6.77;;;20.60;77.50;;;;;;5067852;28;43473;-72
2023/10/08 09:34:38;;;;;;;7.23;6.73;;;20.60;77.50;;;;;;5065480;28;43459;-72
2023/10/08 09:37:08;;;;;;;6.40;6.10;;;20.60;77.50;;;;;;5065347;28;43628;-72
2023/10/08 09:39:35;;;;;;;6.97;6.57;;;20.50;77.50;;;;;;5067629;28;43516;-72
2023/10/08 09:42:06;;;;;;;7.10;6.70;;;20.50;77.70;;;;;;5062487;28;43405;-72
2023/10/08 09:44:35;;;;;;;6.27;5.67;;;20.40;78.00;;;;;;5067954;28;43457;-72
2023/10/08 09:47:06;;;;;;;6.27;5.97;;;20.40;78.00;;;;;;5063531;28;43567;-72
2023/10/08 09:49:42;;;;;;;5.90;5.60;;;20.40;78.00;;;;;;5065796;28;43558;-72
2023/10/08 09:52:12;;;;;;;5.80;5.50;;;20.40;78.10;;;;;;5067569;28;43386;-72
2023/10/08 09:54:44;;;;;;;6.57;6.13;;;20.40;78.20;;;;;;5067858;28;43357;-72
2023/10/08 09:57:13;;;;;;;5.80;5.50;;;20.40;78.50;;;;;;5061785;28;43894;-71
2023/10/08 09:59:42;;;;;;;6.07;5.70;;;20.40;78.30;;;;;;5066828;28;43909;-71
2023/10/08 10:02:11;;;;;;;5.80;5.50;;;20.50;77.90;;;;;;5067057;28;44887;-71
2023/10/08 10:04:43;;;;;;;5.83;5.30;;;20.60;77.30;;;;;;5067741;28;43568;-70
2023/10/08 10:07:16;;;;;;;5.20;4.93;;;20.70;77.00;;;;;;5067393;28;45415;-70
2023/10/08 10:09:46;;;;;;;5.53;5.20;;;20.80;77.80;;;;;;5070713;28;43588;-70
2023/10/08 10:12:24;;;;;;;4.73;4.53;;;20.70;77.20;;;;;;5071005;28;43363;-70
2023/10/08 10:14:55;;;;;;;5.10;4.90;;;20.70;77.50;;;;;;5076351;28;43371;-66
2023/10/08 10:17:25;;;;;;;5.03;4.70;;;20.60;77.70;;;;;;5075275;28;43918;-66
2023/10/08 10:20:13;;;;;;;4.60;4.40;;;20.60;78.00;;;;;;5075895;28;43386;-66
2023/10/08 10:22:45;;;;;;;4.50;4.33;;;20.60;78.10;;;;;;5070922;28;43970;-66
2023/10/08 10:25:17;;;;;;;4.57;4.37;;;20.50;78.10;;;;;;5075779;28;43458;-66
2023/10/08 10:28:20;;;;;;;4.53;4.33;;;20.50;78.20;;;;;;5075078;28;44787;-65
2023/10/08 10:30:49;;;;;;;4.50;4.30;;;20.40;78.30;;;;;;5073632;28;44942;-67
2023/10/08 10:33:17;;;;;;;4.33;4.13;;;20.50;78.10;;;;;;5073152;28;43414;-66
2023/10/08 10:35:51;;;;;;;4.63;4.43;;;20.60;77.80;;;;;;5073727;28;43408;-66
2023/10/08 10:38:26;;;;;;;4.10;3.90;;;20.60;77.40;;;;;;5068869;28;43602;-66
2023/10/08 10:40:57;;;;;;;3.80;3.63;;;20.70;77.50;;;;;;5075539;28;43478;-66
2023/10/08 10:43:32;;;;;;;4.67;4.43;;;20.60;77.60;;;;;;5074202;28;43434;-66
2023/10/08 10:46:24;;;;;;;4.00;3.80;;;20.70;77.60;;;;;;5074852;28;43397;-66
2023/10/08 10:49:04;;;;;;;4.10;3.90;;;20.70;77.60;;;;;;5074035;28;43623;-66
2023/10/08 10:51:33;;;;;;;3.87;3.77;;;20.60;77.70;;;;;;5069014;28;43905;-67
2023/10/08 10:54:10;;;;;;;4.13;3.87;;;20.60;77.90;;;;;;5074194;28;43407;-66
2023/10/08 10:56:43;;;;;;;4.17;3.97;;;20.60;78.00;;;;;;5074338;28;43501;-66
2023/10/08 10:59:18;;;;;;;4.47;4.27;;;20.50;77.80;;;;;;5074326;28;43615;-66
2023/10/08 11:01:51;;;;;;;4.13;3.90;;;20.60;78.10;;;;;;5074706;28;43554;-66
2023/10/08 11:04:21;;;;;;;3.93;3.73;;;20.60;78.20;;;;;;5074496;28;43442;-66
2023/10/08 11:06:56;;;;;;;4.07;3.87;;;20.50;78.20;;;;;;5072681;28;43409;-65
2023/10/08 11:09:35;;;;;;;4.20;3.90;;;20.50;78.30;;;;;;5073686;28;44066;-66
2023/10/08 11:12:10;;;;;;;3.93;3.73;;;20.50;78.90;;;;;;5069840;28;43388;-66
2023/10/08 11:14:42;;;;;;;3.90;3.70;;;20.60;77.90;;;;;;5069073;28;44021;-70
2023/10/08 11:17:12;;;;;;;3.70;3.50;;;20.70;77.30;;;;;;5069729;28;43467;-70
2023/10/08 11:19:42;;;;;;;3.80;3.70;;;20.80;77.20;;;;;;5069192;28;43931;-70
2023/10/08 11:22:15;;;;;;;3.80;3.60;;;20.80;77.40;;;;;;5069376;28;43284;-70
2023/10/08 11:24:48;;;;;;;4.10;3.80;;;20.70;77.50;;;;;;5071458;28;43385;-66
2023/10/08 11:27:28;;;;;;;3.60;3.50;;;20.70;77.20;;;;;;5073350;28;43355;-66
2023/10/08 11:29:57;;;;;;;3.40;3.30;;;20.70;77.50;;;;;;5073702;28;43856;-67
2023/10/08 11:32:26;;;;;;;3.60;3.50;;;20.60;77.60;;;;;;5067896;28;44692;-66
2023/10/08 11:35:00;;;;;;;3.67;3.37;;;20.60;77.80;;;;;;5071659;28;43821;-67
2023/10/08 11:37:27;;;;;;;3.27;3.17;;;20.60;78.00;;;;;;5067456;28;43475;-66
2023/10/08 11:39:58;;;;;;;3.90;3.70;;;20.60;77.90;;;;;;5074174;28;43807;-66
2023/10/08 11:42:40;;;;;;;3.43;3.33;;;20.60;78.10;;;;;;5071184;28;43451;-66
2023/10/08 11:47:56;;;;;;;14.53;4.47;;;20.50;78.20;;;;;;5072933;28;43473;-66
2023/10/08 11:50:30;;;;;;;42.93;4.73;;;20.50;78.30;;;;;;5072300;28;45946;-67
2023/10/08 11:53:02;;;;;;;45.33;5.13;;;20.50;78.20;;;;;;5073589;28;43407;-66
2023/10/08 11:55:35;;;;;;;48.80;6.13;;;20.60;77.90;;;;;;5073792;28;43498;-65
2023/10/08 11:58:09;;;;;;;57.47;6.00;;;20.70;77.50;;;;;;5072333;28;43406;-66
2023/10/08 12:00:43;;;;;;;41.33;5.50;;;20.80;77.00;;;;;;5073552;28;43900;-65
2023/10/08 12:03:12;;;;;;;32.03;5.23;;;20.80;77.10;;;;;;5073667;28;43437;-65
2023/10/08 12:05:47;;;;;;;19.23;5.07;;;20.80;77.30;;;;;;5073767;28;43479;-66
2023/10/08 12:08:16;;;;;;;23.03;4.77;;;20.70;77.50;;;;;;5072942;28;43605;-65
2023/10/08 12:10:46;;;;;;;34.10;5.77;;;20.60;77.70;;;;;;5073358;28;43935;-65
2023/10/08 12:13:16;;;;;;;41.23;5.73;;;20.60;78.00;;;;;;5073113;28;43366;-66
2023/10/08 12:15:47;;;;;;;20.03;4.60;;;20.60;78.00;;;;;;5073464;28;43341;-66
2023/10/08 12:18:24;;;;;;;18.30;4.67;;;20.60;78.20;;;;;;5073416;28;43418;-65
2023/10/08 12:20:53;;;;;;;13.60;4.40;;;20.60;78.20;;;;;;5071598;28;44904;-66
2023/10/08 12:23:25;;;;;;;13.93;4.53;;;20.50;78.30;;;;;;5070798;28;43419;-72
2023/10/08 12:25:55;;;;;;;20.53;4.90;;;20.50;78.60;;;;;;5067930;28;43457;-72
2023/10/08 12:28:24;;;;;;;17.27;4.50;;;20.50;78.50;;;;;;5065443;28;43775;-72
2023/10/08 12:30:53;;;;;;;10.30;4.03;;;20.50;78.50;;;;;;5061743;28;43888;-73
2023/10/08 12:33:23;;;;;;;20.17;4.27;;;20.50;78.60;;;;;;5070681;28;43466;-69
2023/10/08 12:35:53;;;;;;;17.13;4.60;;;20.50;78.70;;;;;;5066871;28;43447;-67
2023/10/08 12:38:22;;;;;;;17.67;4.13;;;20.40;78.80;;;;;;5073674;28;43360;-67
2023/10/08 12:40:52;;;;;;;19.30;4.60;;;20.50;78.80;;;;;;5072409;28;43559;-67
2023/10/08 12:43:22;;;;;;;24.23;5.17;;;20.60;78.50;;;;;;5072829;28;43625;-66
2023/10/08 12:45:52;;;;;;;17.73;4.53;;;20.80;78.80;;;;;;5072753;28;43398;-66
2023/10/08 12:48:21;;;;;;;8.97;3.80;;;20.80;77.30;;;;;;5068292;28;43404;-67
2023/10/08 12:50:56;;;;;;;14.77;4.53;;;20.90;77.20;;;;;;5072568;28;43606;-67
2023/10/08 12:53:33;;;;;;;11.07;3.30;;;20.80;77.30;;;;;;5070768;28;45040;-66
2023/10/08 12:56:05;;;;;;;11.17;3.63;;;20.80;77.50;;;;;;5070222;28;43402;-66
2023/10/08 12:58:41;;;;;;;13.07;3.70;;;20.70;77.70;;;;;;5072600;28;43415;-67
2023/10/08 13:01:10;;;;;;;8.93;3.33;;;20.70;77.90;;;;;;5071544;28;44025;-66
2023/10/08 13:03:41;;;;;;;6.43;3.27;;;20.70;78.00;;;;;;5072061;28;43468;-66
2023/10/08 13:06:14;;;;;;;8.80;3.80;;;20.60;78.10;;;;;;5072428;28;43359;-66
2023/10/08 13:08:42;;;;;;;10.53;3.47;;;20.60;78.20;;;;;;5067180;28;43509;-66
2023/10/08 13:11:11;;;;;;;11.57;3.47;;;20.60;78.40;;;;;;5067018;28;43844;-67
2023/10/08 13:13:41;;;;;;;7.17;3.33;;;20.60;78.30;;;;;;5071818;28;43453;-66
2023/10/08 13:16:09;;;;;;;10.73;3.87;;;20.60;77.90;;;;;;5066692;28;43422;-66
2023/10/08 13:18:38;;;;;;;7.47;3.20;;;20.70;77.60;;;;;;5072773;28;43561;-67
2023/10/08 13:21:06;;;;;;;8.63;3.27;;;20.70;77.60;;;;;;5071038;28;43897;-66
2023/10/08 13:23:35;;;;;;;7.27;3.40;;;20.70;77.70;;;;;;5071855;28;43362;-66
2023/10/08 13:26:06;;;;;;;5.70;3.27;;;20.70;77.70;;;;;;5069596;28;43456;-67
2023/10/08 13:28:35;;;;;;;6.57;3.60;;;20.70;77.60;;;;;;5072537;28;43447;-67
2023/10/08 13:31:09;;;;;;;5.93;3.20;;;20.70;77.80;;;;;;5072188;28;43902;-67